Stratford, Oklahoma
Current Conditions -  °F | °C
As of 3:15 AM on Monday 20 Oct 2014 (Local Time) from KPVJ Reporting Station
Clear Clear  
Wind Chill: 58°   Ceiling: Unl
Heat Index: 58°   Visibility: 10mi
Dew Point: 51°   Wind: 3mph
Humidity: 77%   Direction: 160°SSE
Pressure: 30.04"   Gusts: NA
Location:  34.8°N, 96.96°W
Report Text: KPVJ 200815Z AUTO 16003KT 10SM CLR 14/11 A3004 RMK AO2 T01440105
Loading
Personal Weather Stations






























Interactive Weather Map
Tropical Storm Tracking
New forecast layout! Learn more

10-Day Weather Forecast

Advertisements
Track Severe Weather on mobile